Time;durP1;ratioP1;P1;durP2;ratioP2;P2;SDS_P1;SDS_P2;PMS_P1;PMS_P2;Temp;Humidity;BMP_temperature;BMP_pressure;BME280_temperature;BME280_humidity;BME280_pressure;Samples;Min_cycle;Max_cycle;Signal;HPM_P1;HPM_P2
2022/06/27 00:02:03;;;;;;;;;;;19.10;1.00;;;;;;10203868;28;84885;-52
2022/06/27 00:07:03;;;;;;;;;;;19.00;1.00;;;;;;10202519;28;84873;-49
2022/06/27 00:12:04;;;;;;;;;;;19.00;1.00;;;;;;10203038;28;84749;-50
2022/06/27 00:17:05;;;;;;;;;;;19.00;1.00;;;;;;10203077;28;84482;-50
2022/06/27 00:22:05;;;;;;;;;;;19.00;1.00;;;;;;10202835;28;84862;-52
2022/06/27 00:27:06;;;;;;;;;;;19.00;1.00;;;;;;10203551;28;84131;-52
2022/06/27 00:32:07;;;;;;;;;;;19.00;1.00;;;;;;10202967;28;84258;-48
2022/06/27 00:37:07;;;;;;;;;;;19.00;1.00;;;;;;10203338;28;84862;-51
2022/06/27 00:42:08;;;;;;;;;;;19.00;1.00;;;;;;10201969;28;87257;-49
2022/06/27 00:47:10;;;;;;;;;;;18.90;1.00;;;;;;10203530;28;85007;-49
2022/06/27 00:52:12;;;;;;;;;;;18.90;1.00;;;;;;10202802;28;86049;-49
2022/06/27 00:57:13;;;;;;;;;;;19.00;1.00;;;;;;10207537;28;87430;-46
2022/06/27 01:02:13;;;;;;;;;;;19.00;1.00;;;;;;10207482;28;86003;-52
2022/06/27 01:07:14;;;;;;;;;;;18.90;1.00;;;;;;10208133;28;87006;-50
2022/06/27 01:12:15;;;;;;;;;;;18.80;1.00;;;;;;10207220;28;86977;-49
2022/06/27 01:17:15;;;;;;;;;;;18.80;1.00;;;;;;10208805;28;84169;-47
2022/06/27 01:22:17;;;;;;;;;;;18.80;1.00;;;;;;10207497;28;84956;-49
2022/06/27 01:27:18;;;;;;;;;;;18.80;1.00;;;;;;10205818;28;87054;-48
2022/06/27 01:32:18;;;;;;;;;;;18.80;15.00;;;;;;10206519;28;85838;-48
2022/06/27 01:37:19;;;;;;;;;;;18.90;1.00;;;;;;10208223;28;84936;-49
2022/06/27 01:42:21;;;;;;;;;;;18.80;16.70;;;;;;10206065;28;86062;-47
2022/06/27 01:47:22;;;;;;;;;;;18.80;53.40;;;;;;10206523;28;86285;-50
2022/06/27 01:52:28;;;;;;;;;;;18.70;63.90;;;;;;10206295;28;84963;-51
2022/06/27 01:57:29;;;;;;;;;;;18.60;99.90;;;;;;10206050;28;86823;-47
2022/06/27 02:02:30;;;;;;;;;;;18.70;99.90;;;;;;10205381;28;84983;-48
2022/06/27 02:07:31;;;;;;;;;;;18.60;99.90;;;;;;10189513;28;86691;-47
2022/06/27 02:12:31;;;;;;;;;;;18.60;99.90;;;;;;10205713;28;87242;-49
2022/06/27 02:17:32;;;;;;;;;;;18.60;99.90;;;;;;10221089;22;85936;-53
2022/06/27 02:22:33;;;;;;;;;;;18.50;99.90;;;;;;10224696;28;86794;-50
2022/06/27 02:27:34;;;;;;;;;;;18.50;99.90;;;;;;10212866;28;84988;-51
2022/06/27 02:32:35;;;;;;;;;;;18.50;99.90;;;;;;10211472;28;84146;-50
2022/06/27 02:37:35;;;;;;;;;;;18.40;99.90;;;;;;10208926;28;84224;-50
2022/06/27 02:42:36;;;;;;;;;;;18.40;99.90;;;;;;10207313;28;85726;-50
2022/06/27 02:47:38;;;;;;;;;;;18.40;99.90;;;;;;10204201;28;85049;-57
2022/06/27 02:52:44;;;;;;;;;;;18.30;99.90;;;;;;10221830;28;86232;-52
2022/06/27 02:57:56;;;;;;;;;;;18.20;99.90;;;;;;10222398;28;86000;-50
2022/06/27 03:02:58;;;;;;;;;;;18.10;99.90;;;;;;10207513;28;84767;-50
2022/06/27 03:08:08;;;;;;;;;;;18.10;99.90;;;;;;10206347;28;84842;-53
2022/06/27 03:13:13;;;;;;;;;;;18.00;99.90;;;;;;10206499;28;87187;-53
2022/06/27 03:18:14;;;;;;;;;;;18.00;99.90;;;;;;10209276;28;84847;-52
2022/06/27 03:23:41;;;;;;;;;;;18.00;99.90;;;;;;10206214;28;84651;-53
2022/06/27 03:28:43;;;;;;;;;;;17.90;99.90;;;;;;10205758;28;86192;-54
2022/06/27 03:33:43;;;;;;;;;;;17.90;99.90;;;;;;10209734;28;87057;-54
2022/06/27 03:38:59;;;;;;;;;;;17.90;99.90;;;;;;10204262;28;84103;-50
2022/06/27 03:44:00;;;;;;;;;;;17.90;99.90;;;;;;10205289;28;86860;-56
2022/06/27 03:54:31;;;;;;;;;;;17.90;99.90;;;;;;10196031;28;84986;-52
2022/06/27 03:59:32;;;;;;;;;;;17.90;99.90;;;;;;10213202;28;86017;-52
2022/06/27 04:04:33;;;;;;;;;;;17.90;99.90;;;;;;10214332;28;85807;-49
2022/06/27 04:09:33;;;;;;;;;;;17.80;99.90;;;;;;10203908;28;85751;-53
2022/06/27 04:14:34;;;;;;;;;;;17.80;99.90;;;;;;10224631;28;84133;-53
2022/06/27 04:20:05;;;;;;;;;;;17.90;99.90;;;;;;10208693;28;84686;-55
2022/06/27 04:25:26;;;;;;;;;;;17.80;99.90;;;;;;10204775;28;84967;-51
2022/06/27 04:30:27;;;;;;;;;;;17.90;99.90;;;;;;10208887;28;85915;-54
2022/06/27 04:35:28;;;;;;;;;;;17.90;99.90;;;;;;10210583;28;85951;-51
2022/06/27 04:40:29;;;;;;;;;;;17.80;99.90;;;;;;10211025;28;84843;-54
2022/06/27 04:45:33;;;;;;;;;;;17.90;99.90;;;;;;10219482;28;84223;-53
2022/06/27 04:50:45;;;;;;;;;;;17.80;99.90;;;;;;10208982;28;86502;-53
2022/06/27 04:55:47;;;;;;;;;;;17.90;99.90;;;;;;10225368;28;87039;-54
2022/06/27 05:00:47;;;;;;;;;;;18.00;99.90;;;;;;10232174;28;87015;-50
2022/06/27 05:06:06;;;;;;;;;;;18.00;99.90;;;;;;10232755;28;84007;-53
2022/06/27 05:11:07;;;;;;;;;;;18.00;99.90;;;;;;10228292;28;86276;-56
2022/06/27 05:16:08;;;;;;;;;;;18.10;99.90;;;;;;10229765;28;85850;-53
2022/06/27 05:21:11;;;;;;;;;;;18.10;99.90;;;;;;10228163;28;86673;-51
2022/06/27 05:26:12;;;;;;;;;;;18.30;99.90;;;;;;10227346;28;85967;-50
2022/06/27 05:31:13;;;;;;;;;;;18.30;99.90;;;;;;10225996;28;86021;-51
2022/06/27 05:36:14;;;;;;;;;;;18.50;99.90;;;;;;10227029;28;86606;-52
2022/06/27 05:41:14;;;;;;;;;;;18.50;99.90;;;;;;10226886;28;85082;-52
2022/06/27 05:46:16;;;;;;;;;;;18.50;99.90;;;;;;10225222;28;86890;-51
2022/06/27 05:51:40;;;;;;;;;;;18.50;99.90;;;;;;10228886;28;85159;-50
2022/06/27 05:56:42;;;;;;;;;;;18.50;99.90;;;;;;10219033;28;86054;-50
2022/06/27 06:01:45;;;;;;;;;;;18.50;99.90;;;;;;10222480;28;85962;-56
2022/06/27 06:06:47;;;;;;;;;;;18.60;99.90;;;;;;10225766;28;87415;-45
2022/06/27 06:11:48;;;;;;;;;;;18.50;99.90;;;;;;10225059;28;86654;-52
2022/06/27 06:16:49;;;;;;;;;;;18.50;99.90;;;;;;10215726;28;87225;-53
2022/06/27 06:21:50;;;;;;;;;;;18.50;99.90;;;;;;10211037;28;86038;-56
2022/06/27 06:26:55;;;;;;;;;;;18.60;99.90;;;;;;10206923;28;85241;-57
2022/06/27 06:31:56;;;;;;;;;;;18.70;99.90;;;;;;10206481;28;87356;-57
2022/06/27 06:36:57;;;;;;;;;;;18.70;99.90;;;;;;10205598;28;86924;-57
2022/06/27 06:41:57;;;;;;;;;;;18.80;99.90;;;;;;10207806;28;86081;-56
2022/06/27 06:46:58;;;;;;;;;;;18.80;99.90;;;;;;10208054;28;86045;-59
2022/06/27 06:52:18;;;;;;;;;;;18.80;99.90;;;;;;10227844;28;84213;-57
2022/06/27 06:57:19;;;;;;;;;;;18.80;99.90;;;;;;10231055;28;84934;-59
2022/06/27 07:02:19;;;;;;;;;;;18.70;99.90;;;;;;10218338;28;84222;-56
2022/06/27 07:07:20;;;;;;;;;;;18.70;99.90;;;;;;10226811;28;85137;-55
2022/06/27 07:12:21;;;;;;;;;;;18.60;99.90;;;;;;10227378;28;84909;-53
2022/06/27 07:17:24;;;;;;;;;;;18.70;99.90;;;;;;10228020;28;84859;-56
2022/06/27 07:22:28;;;;;;;;;;;18.80;99.90;;;;;;10223810;28;84175;-58
2022/06/27 07:27:29;;;;;;;;;;;19.00;64.60;;;;;;10226626;28;86100;-57
2022/06/27 07:32:31;;;;;;;;;;;19.00;59.00;;;;;;10240567;28;84729;-58
2022/06/27 07:37:33;;;;;;;;;;;19.00;76.90;;;;;;10235564;28;84218;-55
2022/06/27 07:42:35;;;;;;;;;;;19.10;99.90;;;;;;10228377;28;85689;-52
2022/06/27 07:47:36;;;;;;;;;;;19.10;96.70;;;;;;10225142;28;84990;-59
2022/06/27 07:58:16;;;;;;;;;;;19.10;35.80;;;;;;10166067;28;85053;-52
2022/06/27 08:03:36;;;;;;;;;;;19.10;39.20;;;;;;10223169;28;84216;-58
2022/06/27 08:08:41;;;;;;;;;;;18.80;99.90;;;;;;10219864;28;84500;-53
2022/06/27 08:13:42;;;;;;;;;;;18.70;99.90;;;;;;10219748;28;84318;-50
2022/06/27 08:18:44;;;;;;;;;;;18.70;99.90;;;;;;10224307;22;84791;-52
2022/06/27 08:23:46;;;;;;;;;;;18.80;99.90;;;;;;10214185;28;84369;-51
2022/06/27 08:28:47;;;;;;;;;;;18.90;99.90;;;;;;10243046;28;86341;-51
2022/06/27 08:33:49;;;;;;;;;;;19.00;99.90;;;;;;10205912;28;84883;-49
2022/06/27 08:38:50;;;;;;;;;;;19.00;93.50;;;;;;10205057;28;84859;-49
2022/06/27 08:43:52;;;;;;;;;;;19.10;99.90;;;;;;10213540;28;84115;-52
2022/06/27 08:48:55;;;;;;;;;;;19.10;24.10;;;;;;10237548;28;84348;-55
2022/06/27 08:53:55;;;;;;;;;;;19.30;1.00;;;;;;10243835;28;84093;-57
2022/06/27 08:58:58;;;;;;;;;;;19.30;1.00;;;;;;10206691;28;84239;-54
2022/06/27 09:04:00;;;;;;;;;;;19.40;1.00;;;;;;10233936;28;84825;-56
2022/06/27 09:09:07;;;;;;;;;;;19.50;1.00;;;;;;10241181;28;86151;-54
2022/06/27 09:14:28;;;;;;;;;;;19.70;1.00;;;;;;10234975;28;84783;-57
2022/06/27 09:19:45;;;;;;;;;;;20.20;1.00;;;;;;10220232;28;84991;-52
2022/06/27 09:25:00;;;;;;;;;;;20.30;1.00;;;;;;10217995;28;84177;-52
2022/06/27 09:30:01;;;;;;;;;;;20.40;1.00;;;;;;10250549;28;84689;-50
2022/06/27 09:35:20;;;;;;;;;;;20.20;1.00;;;;;;10235501;28;85327;-47
2022/06/27 09:40:22;;;;;;;;;;;20.10;1.00;;;;;;10224248;28;84193;-49
2022/06/27 09:45:23;;;;;;;;;;;20.00;1.00;;;;;;10227337;28;84762;-58
2022/06/27 09:50:25;;;;;;;;;;;19.90;1.00;;;;;;10207097;28;86012;-58
2022/06/27 09:55:26;;;;;;;;;;;19.80;1.00;;;;;;10209433;28;84912;-59
2022/06/27 10:00:27;;;;;;;;;;;19.80;1.00;;;;;;10206986;28;85948;-54
2022/06/27 10:05:27;;;;;;;;;;;20.10;1.00;;;;;;10205984;28;84136;-52
2022/06/27 10:10:31;;;;;;;;;;;20.00;1.00;;;;;;10212030;28;87095;-53
2022/06/27 10:15:36;;;;;;;;;;;20.00;1.00;;;;;;10206987;28;84806;-57
2022/06/27 10:20:38;;;;;;;;;;;20.10;1.00;;;;;;10208030;28;84199;-57
2022/06/27 10:25:40;;;;;;;;;;;20.00;1.00;;;;;;10211439;28;84806;-55
2022/06/27 10:30:44;;;;;;;;;;;20.00;1.00;;;;;;10204716;28;84826;-58
2022/06/27 10:36:09;;;;;;;;;;;20.10;1.00;;;;;;10207761;28;86532;-52
2022/06/27 10:41:10;;;;;;;;;;;19.90;1.00;;;;;;10206806;28;84831;-56
2022/06/27 10:46:11;;;;;;;;;;;19.80;1.00;;;;;;10207415;28;84170;-51
2022/06/27 10:51:18;;;;;;;;;;;19.70;1.00;;;;;;10207169;28;85177;-57
2022/06/27 10:56:34;;;;;;;;;;;19.60;1.00;;;;;;10205734;28;87169;-51
2022/06/27 11:01:35;;;;;;;;;;;19.70;1.00;;;;;;10208254;28;84895;-47
2022/06/27 11:06:36;;;;;;;;;;;19.60;1.00;;;;;;10205970;28;86135;-47
2022/06/27 11:11:36;;;;;;;;;;;19.50;1.00;;;;;;10206790;28;85759;-48
2022/06/27 11:16:37;;;;;;;;;;;19.40;1.00;;;;;;10208266;28;84908;-49
2022/06/27 11:21:38;;;;;;;;;;;19.40;1.00;;;;;;10206070;28;84112;-48
2022/06/27 11:26:48;;;;;;;;;;;19.70;1.00;;;;;;10207615;28;84956;-49
2022/06/27 11:31:58;;;;;;;;;;;19.80;1.00;;;;;;10205324;28;84847;-54
2022/06/27 11:37:00;;;;;;;;;;;19.90;1.00;;;;;;10205959;28;84282;-54
2022/06/27 11:42:02;;;;;;;;;;;19.70;1.00;;;;;;10207458;28;85957;-53
2022/06/27 11:47:07;;;;;;;;;;;19.50;1.00;;;;;;10205382;28;85098;-53
2022/06/27 11:52:12;;;;;;;;;;;19.40;1.00;;;;;;10206639;28;84862;-57
2022/06/27 11:57:26;;;;;;;;;;;19.40;1.00;;;;;;10204739;28;84984;-51
2022/06/27 12:02:29;;;;;;;;;;;19.40;1.00;;;;;;10202706;28;86887;-55
2022/06/27 12:07:30;;;;;;;;;;;19.70;1.00;;;;;;10205081;28;84417;-52
2022/06/27 12:12:31;;;;;;;;;;;19.80;1.00;;;;;;10203551;28;85958;-52
2022/06/27 12:17:38;;;;;;;;;;;20.10;1.00;;;;;;10204587;28;84180;-55
2022/06/27 12:22:39;;;;;;;;;;;20.30;1.00;;;;;;10196223;28;84970;-53
2022/06/27 12:27:41;;;;;;;;;;;20.40;1.00;;;;;;10204379;28;84356;-53
2022/06/27 12:32:41;;;;;;;;;;;20.50;1.00;;;;;;10203603;28;86037;-53
2022/06/27 12:37:42;;;;;;;;;;;20.60;1.00;;;;;;10206812;28;84331;-49
2022/06/27 12:42:43;;;;;;;;;;;20.30;1.00;;;;;;10202630;28;86869;-56
2022/06/27 12:47:43;;;;;;;;;;;20.30;1.00;;;;;;10204760;28;84798;-52
2022/06/27 12:52:44;;;;;;;;;;;20.30;1.00;;;;;;10211234;28;84928;-51
2022/06/27 12:57:44;;;;;;;;;;;20.30;1.00;;;;;;10212210;28;86458;-52
2022/06/27 13:02:45;;;;;;;;;;;20.50;1.00;;;;;;10210200;28;84881;-52
2022/06/27 13:07:46;;;;;;;;;;;20.60;1.00;;;;;;10210478;28;84537;-55
2022/06/27 13:12:46;;;;;;;;;;;20.60;1.00;;;;;;10212104;28;85363;-50
2022/06/27 13:17:48;;;;;;;;;;;20.80;99.90;;;;;;10209922;28;84398;-51
2022/06/27 13:22:48;;;;;;;;;;;20.80;38.10;;;;;;10210436;28;85017;-53
2022/06/27 13:27:49;;;;;;;;;;;20.80;1.00;;;;;;10208374;28;86043;-52
2022/06/27 13:32:49;;;;;;;;;;;21.10;1.00;;;;;;10209743;28;84736;-56
2022/06/27 13:37:50;;;;;;;;;;;21.10;1.00;;;;;;10210567;28;84917;-55
2022/06/27 13:42:50;;;;;;;;;;;21.20;1.00;;;;;;10209863;28;84864;-52
2022/06/27 13:47:51;;;;;;;;;;;21.20;1.00;;;;;;10211442;28;85033;-52
2022/06/27 13:52:51;;;;;;;;;;;21.10;1.00;;;;;;10205794;28;86794;-51
2022/06/27 13:57:52;;;;;;;;;;;21.10;16.70;;;;;;10206216;28;85764;-48
2022/06/27 14:02:53;;;;;;;;;;;21.00;99.90;;;;;;10210182;28;84642;-50
2022/06/27 14:07:53;;;;;;;;;;;21.10;99.90;;;;;;10207676;28;84177;-49
2022/06/27 14:12:54;;;;;;;;;;;21.40;1.00;;;;;;10205466;28;84986;-52
2022/06/27 14:17:55;;;;;;;;;;;21.60;1.00;;;;;;10251817;22;84224;-49
2022/06/27 14:22:56;;;;;;;;;;;21.80;99.90;;;;;;10247816;28;84250;-52
2022/06/27 14:27:58;;;;;;;;;;;21.90;99.90;;;;;;10237356;28;84895;-57
2022/06/27 14:32:58;;;;;;;;;;;21.90;99.90;;;;;;10228375;28;85264;-50
2022/06/27 14:37:59;;;;;;;;;;;22.10;99.90;;;;;;10228370;28;84213;-60
2022/06/27 14:42:59;;;;;;;;;;;22.60;1.00;;;;;;10226200;28;85037;-56
2022/06/27 14:48:00;;;;;;;;;;;22.80;1.00;;;;;;10229172;28;84043;-57
2022/06/27 14:53:00;;;;;;;;;;;22.90;1.00;;;;;;10222906;28;84243;-52
2022/06/27 14:58:01;;;;;;;;;;;23.20;99.90;;;;;;10181274;28;84572;-50
2022/06/27 15:03:02;;;;;;;;;;;23.30;1.00;;;;;;10228841;28;84164;-50
2022/06/27 15:08:03;;;;;;;;;;;23.50;1.00;;;;;;10226792;28;85043;-53
2022/06/27 15:13:03;;;;;;;;;;;23.80;99.90;;;;;;10223481;28;87203;-58
2022/06/27 15:18:04;;;;;;;;;;;23.60;99.90;;;;;;10226166;28;84168;-52
2022/06/27 15:23:05;;;;;;;;;;;23.30;1.00;;;;;;10225173;28;85495;-55
2022/06/27 15:28:05;;;;;;;;;;;23.30;99.90;;;;;;10227234;28;84896;-51
2022/06/27 15:33:06;;;;;;;;;;;23.40;99.90;;;;;;10226405;28;84145;-53
2022/06/27 15:38:06;;;;;;;;;;;23.10;1.00;;;;;;10225841;28;84672;-58
2022/06/27 15:43:07;;;;;;;;;;;22.90;1.00;;;;;;10237184;28;84934;-51
2022/06/27 15:48:08;;;;;;;;;;;23.00;1.00;;;;;;10227098;28;84135;-50
2022/06/27 15:53:08;;;;;;;;;;;22.90;1.00;;;;;;10221698;28;84347;-47
2022/06/27 15:58:09;;;;;;;;;;;22.90;1.00;;;;;;10217409;28;84899;-53
2022/06/27 16:03:09;;;;;;;;;;;22.90;99.90;;;;;;10225398;28;84922;-56
2022/06/27 16:08:10;;;;;;;;;;;22.70;99.90;;;;;;10222762;28;84864;-54
2022/06/27 16:13:14;;;;;;;;;;;22.60;1.00;;;;;;10234130;28;84032;-45
2022/06/27 16:18:15;;;;;;;;;;;22.60;99.90;;;;;;10216962;28;84289;-53
2022/06/27 16:23:16;;;;;;;;;;;22.40;1.00;;;;;;10208894;28;84156;-45
2022/06/27 16:28:16;;;;;;;;;;;22.30;1.00;;;;;;10213337;28;84254;-48
2022/06/27 16:33:17;;;;;;;;;;;22.10;1.00;;;;;;10176304;28;84904;-50
2022/06/27 16:38:18;;;;;;;;;;;21.90;1.00;;;;;;10175060;28;85093;-50
2022/06/27 16:43:19;;;;;;;;;;;21.40;1.00;;;;;;10230136;28;86020;-49
2022/06/27 16:48:20;;;;;;;;;;;19.90;14.90;;;;;;10231192;28;84150;-51
2022/06/27 16:53:21;;;;;;;;;;;19.40;99.90;;;;;;10232044;28;84126;-50
2022/06/27 16:58:22;;;;;;;;;;;19.00;99.90;;;;;;10227845;28;85358;-51
2022/06/27 17:03:23;;;;;;;;;;;18.80;99.90;;;;;;10231997;28;84165;-54
2022/06/27 17:08:23;;;;;;;;;;;18.60;99.90;;;;;;10212278;28;85968;-54
2022/06/27 17:13:25;;;;;;;;;;;18.50;99.90;;;;;;10231998;28;84827;-51
2022/06/27 17:18:26;;;;;;;;;;;18.40;99.90;;;;;;10230206;28;84443;-52
2022/06/27 17:23:27;;;;;;;;;;;18.40;99.90;;;;;;10225111;28;84993;-48
2022/06/27 17:28:27;;;;;;;;;;;18.50;99.90;;;;;;10214331;28;85007;-53
2022/06/27 17:33:28;;;;;;;;;;;18.40;99.90;;;;;;10232319;28;86599;-52
2022/06/27 17:38:28;;;;;;;;;;;18.40;99.90;;;;;;10230717;28;85035;-55
2022/06/27 17:43:29;;;;;;;;;;;18.40;99.90;;;;;;10231124;28;85307;-54
2022/06/27 17:48:29;;;;;;;;;;;18.40;99.90;;;;;;10232121;28;84022;-52
2022/06/27 17:53:30;;;;;;;;;;;18.60;99.90;;;;;;10231438;28;84966;-54
2022/06/27 17:58:31;;;;;;;;;;;18.60;99.90;;;;;;10230879;28;85332;-46
2022/06/27 18:03:31;;;;;;;;;;;18.50;99.90;;;;;;10226240;28;85324;-51
2022/06/27 18:08:32;;;;;;;;;;;18.50;99.90;;;;;;10228895;28;85508;-52
2022/06/27 18:13:32;;;;;;;;;;;18.30;99.90;;;;;;10216485;28;86956;-56
2022/06/27 18:18:33;;;;;;;;;;;18.20;99.90;;;;;;10230036;28;84885;-54
2022/06/27 18:23:33;;;;;;;;;;;18.10;99.90;;;;;;10228841;28;84143;-50
2022/06/27 18:28:34;;;;;;;;;;;18.00;99.90;;;;;;10231304;28;84231;-57
2022/06/27 18:33:34;;;;;;;;;;;18.00;99.90;;;;;;10206354;28;85099;-50
2022/06/27 18:38:35;;;;;;;;;;;18.20;99.90;;;;;;10219180;28;86752;-54
2022/06/27 18:43:36;;;;;;;;;;;18.30;99.90;;;;;;10225408;28;84972;-56
2022/06/27 18:48:36;;;;;;;;;;;18.20;99.90;;;;;;10225455;28;84806;-51
2022/06/27 18:53:37;;;;;;;;;;;18.20;99.90;;;;;;10231023;28;84199;-50
2022/06/27 18:58:37;;;;;;;;;;;18.10;99.90;;;;;;10216019;28;85120;-47
2022/06/27 19:03:38;;;;;;;;;;;17.90;99.90;;;;;;10209730;28;85783;-49
2022/06/27 19:08:40;;;;;;;;;;;17.90;99.90;;;;;;10237833;28;84251;-51
2022/06/27 19:13:40;;;;;;;;;;;17.80;99.90;;;;;;10222472;28;85000;-51
2022/06/27 19:18:41;;;;;;;;;;;17.80;99.90;;;;;;10208044;28;84042;-47
2022/06/27 19:23:41;;;;;;;;;;;17.70;99.90;;;;;;10207739;28;84013;-51
2022/06/27 19:28:42;;;;;;;;;;;17.70;99.90;;;;;;10216921;28;85310;-52
2022/06/27 19:33:44;;;;;;;;;;;17.70;99.90;;;;;;10220909;28;85243;-48
2022/06/27 19:38:45;;;;;;;;;;;17.60;99.90;;;;;;10215135;28;84739;-55
2022/06/27 19:43:45;;;;;;;;;;;17.60;99.90;;;;;;10215376;28;85420;-52
2022/06/27 19:48:46;;;;;;;;;;;17.60;99.90;;;;;;10226786;28;85097;-49
2022/06/27 19:53:47;;;;;;;;;;;17.50;99.90;;;;;;10224635;28;86617;-49
2022/06/27 19:58:47;;;;;;;;;;;17.40;99.90;;;;;;10224691;28;86653;-48
2022/06/27 20:03:48;;;;;;;;;;;17.40;99.90;;;;;;10225324;28;84458;-53
2022/06/27 20:08:49;;;;;;;;;;;17.30;99.90;;;;;;10220744;28;84959;-52
2022/06/27 20:13:49;;;;;;;;;;;17.20;99.90;;;;;;10229126;28;86440;-51
2022/06/27 20:18:50;;;;;;;;;;;17.20;99.90;;;;;;10270007;22;85077;-53
2022/06/27 20:23:51;;;;;;;;;;;17.10;99.90;;;;;;10285038;28;84255;-50
2022/06/27 20:28:52;;;;;;;;;;;17.00;99.90;;;;;;10278615;28;84289;-52
2022/06/27 20:33:53;;;;;;;;;;;16.90;99.90;;;;;;10259217;28;85967;-49
2022/06/27 20:38:53;;;;;;;;;;;16.80;99.90;;;;;;10263175;28;84880;-52
2022/06/27 20:43:54;;;;;;;;;;;16.70;99.90;;;;;;10260584;28;85316;-51
2022/06/27 20:48:55;;;;;;;;;;;16.70;99.90;;;;;;10244924;28;84739;-48
2022/06/27 20:53:55;;;;;;;;;;;16.60;99.90;;;;;;10250427;28;83967;-48
2022/06/27 20:58:56;;;;;;;;;;;16.40;99.90;;;;;;10244426;28;84234;-49
2022/06/27 21:03:56;;;;;;;;;;;16.30;99.90;;;;;;10245119;28;84260;-48
2022/06/27 21:14:19;;;;;;;;;;;16.20;99.90;;;;;;10249569;28;85946;-53
2022/06/27 21:19:20;;;;;;;;;;;16.10;99.90;;;;;;10251491;28;84123;-52
2022/06/27 21:24:21;;;;;;;;;;;16.00;99.90;;;;;;10250290;28;85295;-49
2022/06/27 21:29:22;;;;;;;;;;;15.90;99.90;;;;;;10237538;28;84960;-53
2022/06/27 21:34:23;;;;;;;;;;;15.90;99.90;;;;;;10211342;28;84655;-52
2022/06/27 21:39:24;;;;;;;;;;;15.80;99.90;;;;;;10226458;28;85841;-48
2022/06/27 21:44:25;;;;;;;;;;;15.70;99.90;;;;;;10212460;28;84910;-48
2022/06/27 21:49:26;;;;;;;;;;;15.70;99.90;;;;;;10249919;28;84902;-50
2022/06/27 21:54:27;;;;;;;;;;;15.50;99.90;;;;;;10249130;28;84125;-47
2022/06/27 21:59:27;;;;;;;;;;;15.60;99.90;;;;;;10249816;28;84125;-47
2022/06/27 22:04:28;;;;;;;;;;;15.50;99.90;;;;;;10247991;28;84187;-50
2022/06/27 22:09:28;;;;;;;;;;;15.40;99.90;;;;;;10249142;28;84241;-50
2022/06/27 22:14:29;;;;;;;;;;;15.50;99.90;;;;;;10249383;28;84229;-48
2022/06/27 22:19:29;;;;;;;;;;;15.40;99.90;;;;;;10246201;28;84907;-49
2022/06/27 22:24:30;;;;;;;;;;;15.40;99.90;;;;;;10248056;28;84414;-47
2022/06/27 22:29:30;;;;;;;;;;;15.30;99.90;;;;;;10248827;28;84950;-47
2022/06/27 22:34:31;;;;;;;;;;;15.30;99.90;;;;;;10244965;28;84209;-47
2022/06/27 22:39:31;;;;;;;;;;;15.30;99.90;;;;;;10207895;28;85236;-51
2022/06/27 22:44:32;;;;;;;;;;;15.20;99.90;;;;;;10210183;28;84353;-47
2022/06/27 22:49:33;;;;;;;;;;;15.20;99.90;;;;;;10208481;28;84383;-48
2022/06/27 22:54:34;;;;;;;;;;;15.00;99.90;;;;;;10225376;28;84754;-48
2022/06/27 22:59:35;;;;;;;;;;;15.00;99.90;;;;;;10246389;28;84921;-49
2022/06/27 23:04:36;;;;;;;;;;;15.00;99.90;;;;;;10248977;28;85792;-48
2022/06/27 23:09:37;;;;;;;;;;;14.90;99.90;;;;;;10262502;28;84106;-49
2022/06/27 23:14:37;;;;;;;;;;;14.90;99.90;;;;;;10218149;28;84290;-51
2022/06/27 23:19:38;;;;;;;;;;;14.90;99.90;;;;;;10208847;28;84980;-49
2022/06/27 23:24:39;;;;;;;;;;;14.80;99.90;;;;;;10207064;28;85827;-49
2022/06/27 23:29:39;;;;;;;;;;;14.80;99.90;;;;;;10225851;28;84312;-48
2022/06/27 23:34:40;;;;;;;;;;;14.70;99.90;;;;;;10246750;28;84951;-47
2022/06/27 23:39:45;;;;;;;;;;;14.80;99.90;;;;;;10247548;28;84913;-47
2022/06/27 23:44:45;;;;;;;;;;;14.80;99.90;;;;;;10243821;28;86979;-50
2022/06/27 23:49:46;;;;;;;;;;;14.70;99.90;;;;;;10247422;28;84017;-47
2022/06/27 23:54:47;;;;;;;;;;;14.70;99.90;;;;;;10247677;28;84083;-47
2022/06/27 23:59:48;;;;;;;;;;;14.60;99.90;;;;;;10246976;28;84942;-48
